Colusa, Illinois
Current Conditions -  °F | °C
As of 1:35 AM on Sunday 23 Nov 2014 (Local Time) from KFSW Reporting Station
Overcast Overcast  
Wind Chill: 55°   Ceiling: 1400
Heat Index: 55°   Visibility: 10mi
Dew Point: 52°   Wind: 10mph
Humidity: 88%   Direction: 190°S
Pressure: 29.73"   Gusts: 18mph
Location:  40.57°N, 91.17°W
Report Text: KFSW 230735Z AUTO 19009G16KT 10SM OVC014 13/11 A2973 RMK AO2
Loading
Personal Weather Stations






























Interactive Weather Map New forecast layout! Learn more

10-Day Weather Forecast

Advertisements
Track Severe Weather on mobile